createdAt,value
2023-03-11T00:01:12.788Z,64.03
2023-03-11T00:03:40.586Z,64.00
2023-03-11T00:06:08.714Z,63.73
2023-03-11T00:08:36.465Z,63.54
2023-03-11T00:11:04.393Z,64.33
2023-03-11T00:13:32.933Z,62.48
2023-03-11T00:16:01.965Z,63.13
2023-03-11T00:18:31.704Z,63.40
2023-03-11T00:21:00.874Z,63.24
2023-03-11T00:23:29.376Z,63.93
2023-03-11T00:25:59.812Z,63.06
2023-03-11T00:28:27.687Z,62.43
2023-03-11T00:30:55.644Z,62.00
2023-03-11T00:33:23.957Z,62.71
2023-03-11T00:35:53.177Z,62.13
2023-03-11T00:38:21.453Z,62.70
2023-03-11T00:40:49.592Z,62.72
2023-03-11T00:43:18.017Z,62.40
2023-03-11T00:45:46.007Z,62.72
2023-03-11T00:48:14.788Z,62.46
2023-03-11T00:50:43.279Z,62.94
2023-03-11T00:53:13.517Z,62.80
2023-03-11T00:55:41.935Z,61.91
2023-03-11T00:58:10.053Z,62.49
2023-03-11T01:00:38.078Z,62.15
2023-03-11T01:03:06.370Z,62.37
2023-03-11T01:05:35.456Z,63.02
2023-03-11T01:08:03.794Z,64.10
2023-03-11T01:10:34.818Z,64.56
2023-03-11T01:13:03.152Z,64.01
2023-03-11T01:15:32.831Z,63.93
2023-03-11T01:18:00.717Z,64.08
2023-03-11T01:20:28.873Z,63.78
2023-03-11T01:22:56.836Z,64.10
2023-03-11T01:25:25.759Z,64.99
2023-03-11T01:27:54.927Z,64.96
2023-03-11T01:30:24.546Z,63.51
2023-03-11T01:32:53.273Z,64.23
2023-03-11T01:35:23.499Z,64.22
2023-03-11T01:37:51.456Z,63.45
2023-03-11T01:40:24.776Z,63.89
2023-03-11T01:42:54.080Z,64.48
2023-03-11T01:45:39.481Z,64.25
2023-03-11T01:48:08.390Z,64.38
2023-03-11T01:50:40.351Z,64.98
2023-03-11T01:53:10.920Z,64.77
2023-03-11T01:55:39.557Z,63.27
2023-03-11T01:58:12.566Z,63.02
2023-03-11T02:00:40.764Z,63.01
2023-03-11T02:03:12.684Z,62.94
2023-03-11T02:05:41.783Z,63.03
2023-03-11T02:08:09.759Z,63.32
2023-03-11T02:10:39.926Z,63.17
2023-03-11T02:13:10.741Z,62.74
2023-03-11T02:15:40.062Z,62.49
2023-03-11T02:18:09.197Z,62.86
2023-03-11T02:20:46.032Z,64.01
2023-03-11T02:23:16.008Z,64.24
2023-03-11T02:25:52.316Z,63.96
2023-03-11T02:28:23.012Z,62.82
2023-03-11T02:30:51.922Z,63.20
2023-03-11T02:33:20.412Z,63.60
2023-03-11T02:35:48.404Z,63.16
2023-03-11T02:38:16.393Z,63.77
2023-03-11T02:40:55.596Z,64.18
2023-03-11T02:43:34.623Z,64.27
2023-03-11T02:46:04.552Z,64.31
2023-03-11T02:48:32.858Z,63.84
2023-03-11T02:51:00.991Z,63.52
2023-03-11T02:53:31.156Z,63.34
2023-03-11T02:55:59.037Z,63.54
2023-03-11T02:58:28.161Z,64.31
2023-03-11T03:00:56.026Z,64.07
2023-03-11T03:03:23.829Z,64.51
2023-03-11T03:05:51.733Z,64.61
2023-03-11T03:08:19.578Z,64.51
2023-03-11T03:10:47.421Z,64.37
2023-03-11T03:13:15.191Z,64.64
2023-03-11T03:15:44.305Z,65.40
2023-03-11T03:18:12.120Z,64.66
2023-03-11T03:20:39.973Z,64.26
2023-03-11T03:23:07.839Z,64.73
2023-03-11T03:25:35.948Z,64.41
2023-03-11T03:28:03.734Z,64.96
2023-03-11T03:30:31.480Z,65.10
2023-03-11T03:33:00.759Z,66.25
2023-03-11T03:35:28.636Z,66.44
2023-03-11T03:37:56.433Z,66.66
2023-03-11T03:40:24.279Z,67.09
2023-03-11T03:42:52.180Z,66.97
2023-03-11T03:45:20.134Z,66.92
2023-03-11T03:47:47.925Z,67.08
2023-03-11T03:50:17.123Z,67.29
2023-03-11T03:52:45.003Z,66.96
2023-03-11T03:55:12.852Z,67.55
2023-03-11T03:57:40.612Z,67.72
2023-03-11T04:00:10.098Z,68.04
2023-03-11T04:02:37.979Z,68.06
2023-03-11T04:05:06.619Z,68.68
2023-03-11T04:07:36.912Z,68.41
2023-03-11T04:10:05.700Z,68.38
2023-03-11T04:12:33.467Z,68.49
2023-03-11T04:15:01.230Z,68.23
2023-03-11T04:17:28.944Z,68.46
2023-03-11T04:19:56.675Z,68.09
2023-03-11T04:22:24.520Z,68.02
2023-03-11T04:24:53.638Z,67.72
2023-03-11T04:27:21.402Z,67.32
2023-03-11T04:29:49.163Z,67.74
2023-03-11T04:32:17.001Z,68.25
2023-03-11T04:34:44.940Z,67.80
2023-03-11T04:37:12.629Z,67.45
2023-03-11T04:39:40.351Z,67.45
2023-03-11T04:42:09.558Z,66.96
2023-03-11T04:44:37.503Z,67.44
2023-03-11T04:47:05.374Z,67.01
2023-03-11T04:49:33.095Z,66.89
2023-03-11T04:52:00.849Z,66.82
2023-03-11T04:54:28.913Z,66.93
2023-03-11T04:56:56.636Z,67.15
2023-03-11T04:59:25.906Z,67.22
2023-03-11T05:01:53.727Z,67.69
2023-03-11T05:04:21.561Z,68.12
2023-03-11T05:06:51.164Z,67.64
2023-03-11T05:09:19.092Z,67.80
2023-03-11T05:11:46.822Z,67.86
2023-03-11T05:14:14.620Z,68.08
2023-03-11T05:16:43.694Z,68.71
2023-03-11T05:19:25.368Z,68.77
2023-03-11T05:21:53.133Z,68.32
2023-03-11T05:24:21.232Z,68.37
2023-03-11T05:26:49.107Z,68.75
2023-03-11T05:29:16.881Z,68.66
2023-03-11T05:31:46.911Z,69.10
2023-03-11T05:34:14.940Z,68.89
2023-03-11T05:36:42.716Z,68.76
2023-03-11T05:39:10.702Z,69.14
2023-03-11T05:41:38.697Z,68.70
2023-03-11T05:44:06.620Z,68.89
2023-03-11T05:46:35.412Z,69.06
2023-03-11T05:49:04.829Z,69.32
2023-03-11T05:51:32.659Z,69.12
2023-03-11T05:54:00.507Z,69.18
2023-03-11T05:56:28.264Z,68.88
2023-03-11T05:58:58.385Z,69.74
2023-03-11T06:01:26.204Z,69.40
2023-03-11T06:03:54.054Z,69.08
2023-03-11T06:06:23.852Z,69.55
2023-03-11T06:08:51.674Z,69.50
2023-03-11T06:11:20.514Z,69.73
2023-03-11T06:13:48.272Z,70.04
2023-03-11T06:16:16.092Z,69.33
2023-03-11T06:18:43.991Z,69.74
2023-03-11T06:21:17.658Z,69.32
2023-03-11T06:23:46.930Z,69.85
2023-03-11T06:26:16.817Z,69.29
2023-03-11T06:28:44.910Z,69.53
2023-03-11T06:31:15.512Z,69.65
2023-03-11T06:33:43.809Z,69.69
2023-03-11T06:36:13.785Z,69.53
2023-03-11T06:38:41.648Z,69.08
2023-03-11T06:41:11.352Z,68.63
2023-03-11T06:43:39.120Z,68.99
2023-03-11T06:46:11.379Z,68.49
2023-03-11T06:48:39.229Z,68.72
2023-03-11T06:51:07.482Z,69.17
2023-03-11T06:53:35.469Z,69.19
2023-03-11T06:56:05.519Z,69.37
2023-03-11T06:58:36.294Z,69.07
2023-03-11T07:01:06.462Z,68.65
2023-03-11T07:03:34.667Z,67.72
2023-03-11T07:06:03.001Z,67.78
2023-03-11T07:08:32.258Z,67.45
2023-03-11T07:11:05.396Z,66.63
2023-03-11T07:13:35.022Z,65.79
2023-03-11T07:16:04.757Z,65.08
2023-03-11T07:18:33.570Z,64.44
2023-03-11T07:21:02.770Z,64.36
2023-03-11T07:23:30.769Z,63.84
2023-03-11T07:25:58.596Z,63.05
2023-03-11T07:28:28.286Z,62.13
2023-03-11T07:30:57.569Z,62.37
2023-03-11T07:33:25.585Z,62.05
2023-03-11T07:35:53.596Z,60.62
2023-03-11T07:38:21.649Z,60.14
2023-03-11T07:40:58.486Z,59.75
2023-03-11T07:43:26.307Z,59.99
2023-03-11T07:45:54.944Z,59.17
2023-03-11T07:48:24.621Z,58.83
2023-03-11T07:51:01.533Z,58.42
2023-03-11T07:53:29.274Z,58.18
2023-03-11T07:55:57.487Z,56.99
2023-03-11T07:58:25.565Z,56.67
2023-03-11T08:00:54.688Z,56.57
2023-03-11T08:03:24.013Z,56.50
2023-03-11T08:05:52.028Z,57.30
2023-03-11T08:08:19.834Z,56.28
2023-03-11T08:10:47.704Z,55.30
2023-03-11T08:13:15.506Z,54.08
2023-03-11T08:15:43.380Z,55.09
2023-03-11T08:18:11.391Z,53.70
2023-03-11T08:20:40.686Z,52.77
2023-03-11T08:23:08.458Z,52.84
2023-03-11T08:25:39.695Z,52.98
2023-03-11T08:28:08.092Z,52.82
2023-03-11T08:30:36.442Z,51.57
2023-03-11T08:33:05.035Z,51.58
2023-03-11T08:35:33.630Z,51.97
2023-03-11T08:38:03.025Z,51.10
2023-03-11T08:40:30.826Z,51.55
2023-03-11T08:42:58.933Z,50.44
2023-03-11T08:45:26.749Z,49.77
2023-03-11T08:47:54.560Z,50.10
2023-03-11T08:50:22.448Z,49.28
2023-03-11T08:52:50.325Z,47.65
2023-03-11T08:55:25.086Z,46.08
2023-03-11T08:57:52.978Z,46.31
2023-03-11T09:00:21.724Z,46.43
2023-03-11T09:02:49.850Z,46.85
2023-03-11T09:05:17.825Z,45.19
2023-03-11T09:07:45.723Z,45.46
2023-03-11T09:10:15.185Z,43.37
2023-03-11T09:12:44.359Z,40.28
2023-03-11T09:15:12.386Z,40.60
2023-03-11T09:17:40.101Z,40.88
2023-03-11T09:20:09.089Z,40.50
2023-03-11T09:22:36.849Z,39.22
2023-03-11T09:25:04.926Z,38.78
2023-03-11T09:27:33.362Z,37.37
2023-03-11T09:30:02.385Z,37.84
2023-03-11T09:32:30.314Z,39.21
2023-03-11T09:34:59.644Z,39.17
2023-03-11T09:37:29.875Z,38.62
2023-03-11T09:39:57.847Z,39.08
2023-03-11T09:42:31.960Z,38.38
2023-03-11T09:45:07.755Z,38.30
2023-03-11T09:47:41.801Z,36.09
2023-03-11T09:50:32.111Z,37.49
2023-03-11T09:53:22.632Z,36.66
2023-03-11T09:55:53.274Z,35.79
2023-03-11T09:58:27.750Z,35.59
2023-03-11T10:00:57.488Z,36.29
2023-03-11T10:03:33.078Z,35.90
2023-03-11T10:06:15.623Z,35.56
2023-03-11T10:08:47.710Z,35.18
2023-03-11T10:11:26.952Z,36.73
2023-03-11T10:14:03.205Z,36.78
2023-03-11T10:16:40.448Z,35.87
2023-03-11T10:19:17.004Z,37.00
2023-03-11T10:21:54.200Z,36.94
2023-03-11T10:24:45.726Z,37.00
2023-03-11T10:27:18.369Z,37.14
2023-03-11T10:29:54.072Z,36.59
2023-03-11T10:32:28.423Z,35.71
2023-03-11T10:35:00.139Z,35.55
2023-03-11T10:37:47.858Z,35.55
2023-03-11T10:40:24.103Z,36.32
2023-03-11T10:42:55.202Z,36.43
2023-03-11T10:45:24.427Z,36.12
2023-03-11T10:47:53.539Z,36.60
2023-03-11T10:50:21.814Z,35.58
2023-03-11T10:53:09.344Z,35.57
2023-03-11T10:55:45.677Z,36.00
2023-03-11T10:58:16.561Z,37.54
2023-03-11T11:00:44.580Z,36.82
2023-03-11T11:03:23.233Z,35.19
2023-03-11T11:06:01.049Z,35.90
2023-03-11T11:08:29.303Z,33.92
2023-03-11T11:10:58.927Z,33.61
2023-03-11T11:13:27.942Z,33.21
2023-03-11T11:15:58.658Z,33.53
2023-03-11T11:18:30.536Z,34.29
2023-03-11T11:21:02.407Z,34.06
2023-03-11T11:23:35.578Z,35.01
2023-03-11T11:26:05.888Z,33.66
2023-03-11T11:28:35.001Z,33.64
2023-03-11T11:31:04.959Z,33.02
2023-03-11T11:33:40.706Z,33.19
2023-03-11T11:36:16.777Z,33.04
2023-03-11T11:38:44.609Z,33.01
2023-03-11T11:41:17.975Z,32.56
2023-03-11T11:43:51.409Z,32.95
2023-03-11T11:46:27.066Z,33.74
2023-03-11T11:49:12.389Z,32.73
2023-03-11T11:51:43.939Z,32.96
2023-03-11T11:54:18.892Z,33.32
2023-03-11T11:56:47.354Z,33.53
2023-03-11T11:59:19.207Z,34.08
2023-03-11T12:01:57.310Z,34.65
2023-03-11T12:04:48.992Z,34.61
2023-03-11T12:07:30.833Z,34.94
2023-03-11T12:10:22.222Z,32.57
2023-03-11T12:13:16.288Z,32.04
2023-03-11T12:15:50.732Z,30.70
2023-03-11T12:18:25.046Z,32.96
2023-03-11T12:20:56.068Z,33.53
2023-03-11T12:23:40.210Z,33.03
2023-03-11T12:26:19.061Z,32.39
2023-03-11T12:28:51.920Z,33.07
2023-03-11T12:31:20.845Z,32.65
2023-03-11T12:33:51.258Z,32.51
2023-03-11T12:36:27.335Z,31.51
2023-03-11T12:38:55.759Z,30.64
2023-03-11T12:41:33.681Z,30.56
2023-03-11T12:44:06.593Z,31.92
2023-03-11T12:46:52.553Z,32.01
2023-03-11T12:49:25.509Z,31.46
2023-03-11T12:52:26.489Z,31.41
2023-03-11T12:55:36.971Z,31.45
2023-03-11T12:58:33.905Z,31.21
2023-03-11T13:01:15.397Z,30.20
2023-03-11T13:04:04.901Z,30.62
2023-03-11T13:07:03.467Z,29.98
2023-03-11T13:09:32.731Z,29.46
2023-03-11T13:12:00.443Z,29.78
2023-03-11T13:14:30.521Z,29.87
2023-03-11T13:17:18.058Z,29.90
2023-03-11T13:19:51.750Z,30.14
2023-03-11T13:22:45.586Z,30.10
2023-03-11T13:25:31.476Z,31.55
2023-03-11T13:28:16.660Z,32.52
2023-03-11T13:30:53.810Z,31.99
2023-03-11T13:33:32.869Z,31.51
2023-03-11T13:36:10.065Z,32.69
2023-03-11T13:39:01.966Z,33.62
2023-03-11T13:41:35.678Z,34.89
2023-03-11T13:44:14.727Z,34.46
2023-03-11T13:46:49.794Z,35.17
2023-03-11T13:49:27.617Z,35.71
2023-03-11T13:51:59.311Z,35.49
2023-03-11T13:54:36.746Z,36.19
2023-03-11T13:57:06.027Z,35.59
2023-03-11T13:59:35.834Z,36.02
2023-03-11T14:02:17.409Z,37.64
2023-03-11T14:04:50.977Z,36.25
2023-03-11T14:07:26.486Z,37.33
2023-03-11T14:10:26.129Z,36.85
2023-03-11T14:13:06.822Z,36.49
2023-03-11T14:15:45.407Z,36.71
2023-03-11T14:18:32.864Z,37.13
2023-03-11T14:21:01.543Z,36.57
2023-03-11T14:23:34.162Z,37.58
2023-03-11T14:26:06.144Z,36.55
2023-03-11T14:28:40.138Z,35.97
2023-03-11T14:31:08.496Z,37.07
2023-03-11T14:33:36.598Z,36.74
2023-03-11T14:36:08.050Z,37.24
2023-03-11T14:38:35.845Z,37.93
2023-03-11T14:41:06.834Z,37.83
2023-03-11T14:43:41.282Z,38.13
2023-03-11T14:46:12.476Z,38.69
2023-03-11T14:48:43.888Z,38.37
2023-03-11T14:51:18.803Z,38.88
2023-03-11T14:53:49.365Z,38.98
2023-03-11T14:56:21.665Z,39.62
2023-03-11T14:59:06.983Z,39.72
2023-03-11T15:01:40.580Z,38.96
2023-03-11T15:04:12.406Z,39.34
2023-03-11T15:06:41.414Z,39.55
2023-03-11T15:09:12.350Z,40.06
2023-03-11T15:11:48.387Z,40.51
2023-03-11T15:14:24.590Z,40.16
2023-03-11T15:16:52.657Z,40.57
2023-03-11T15:19:34.666Z,40.96
2023-03-11T15:22:08.142Z,40.99
2023-03-11T15:24:36.125Z,40.60
2023-03-11T15:27:06.882Z,40.74
2023-03-11T15:29:37.355Z,40.10
2023-03-11T15:32:27.338Z,40.30
2023-03-11T15:35:02.686Z,40.45
2023-03-11T15:37:30.524Z,40.00
2023-03-11T15:40:11.614Z,39.44
2023-03-11T15:42:39.481Z,39.72
2023-03-11T15:45:17.254Z,39.09
2023-03-11T15:47:46.013Z,39.33
2023-03-11T15:50:26.341Z,40.28
2023-03-11T15:52:58.149Z,40.54
2023-03-11T15:55:27.302Z,40.60
2023-03-11T15:58:02.660Z,40.83
2023-03-11T16:00:31.799Z,41.11
2023-03-11T16:02:59.823Z,41.99
2023-03-11T16:05:27.968Z,42.08
2023-03-11T16:07:55.972Z,41.86
2023-03-11T16:10:25.751Z,41.33
2023-03-11T16:12:54.929Z,41.33
2023-03-11T16:15:28.500Z,41.68
2023-03-11T16:17:59.835Z,41.73
2023-03-11T16:20:30.275Z,41.89
2023-03-11T16:22:59.992Z,41.50
2023-03-11T16:25:30.759Z,41.03
2023-03-11T16:27:58.917Z,40.98
2023-03-11T16:30:28.322Z,40.79
2023-03-11T16:33:02.640Z,40.71
2023-03-11T16:35:32.016Z,40.78
2023-03-11T16:37:59.865Z,41.21
2023-03-11T16:40:29.741Z,41.74
2023-03-11T16:43:01.286Z,41.64
2023-03-11T16:45:29.407Z,42.30
2023-03-11T16:47:58.612Z,42.51
2023-03-11T16:50:26.884Z,42.73
2023-03-11T16:52:55.527Z,43.39
2023-03-11T16:55:25.188Z,43.64
2023-03-11T16:57:54.726Z,44.20
2023-03-11T17:00:23.028Z,44.54
2023-03-11T17:02:50.824Z,44.50
2023-03-11T17:05:20.463Z,44.48
2023-03-11T17:07:49.151Z,44.45
2023-03-11T17:10:16.937Z,44.97
2023-03-11T17:12:44.830Z,44.83
2023-03-11T17:15:13.127Z,45.42
2023-03-11T17:17:41.276Z,45.48
2023-03-11T17:20:11.197Z,45.71
2023-03-11T17:22:40.788Z,46.28
2023-03-11T17:25:09.552Z,46.56
2023-03-11T17:27:37.386Z,46.84
2023-03-11T17:30:07.333Z,47.41
2023-03-11T17:32:35.424Z,47.98
2023-03-11T17:35:03.265Z,47.68
2023-03-11T17:37:31.161Z,47.73
2023-03-11T17:40:00.372Z,47.87
2023-03-11T17:42:28.203Z,48.13
2023-03-11T17:44:57.100Z,48.07
2023-03-11T17:47:26.055Z,49.10
2023-03-11T17:49:54.384Z,49.01
2023-03-11T17:52:22.376Z,49.25
2023-03-11T17:54:50.185Z,49.85
2023-03-11T17:57:19.246Z,49.76
2023-03-11T17:59:50.290Z,49.79
2023-03-11T18:02:18.043Z,49.87
2023-03-11T18:04:46.038Z,50.09
2023-03-11T18:07:13.883Z,50.26
2023-03-11T18:09:41.673Z,50.84
2023-03-11T18:12:09.545Z,50.50
2023-03-11T18:14:38.705Z,50.47
2023-03-11T18:17:06.455Z,50.89
2023-03-11T18:19:34.728Z,51.05
2023-03-11T18:22:02.522Z,51.45
2023-03-11T18:24:30.729Z,51.80
2023-03-11T18:26:58.533Z,52.10
2023-03-11T18:29:26.281Z,52.43
2023-03-11T18:31:56.272Z,52.46
2023-03-11T18:34:24.142Z,52.99
2023-03-11T18:36:51.813Z,53.41
2023-03-11T18:39:20.056Z,53.25
2023-03-11T18:41:47.782Z,53.39
2023-03-11T18:44:16.129Z,53.60
2023-03-11T18:46:43.954Z,53.72
2023-03-11T18:49:14.859Z,55.19
2023-03-11T18:51:42.704Z,56.23
2023-03-11T18:54:11.641Z,57.60
2023-03-11T18:56:39.372Z,58.68
2023-03-11T18:59:08.620Z,58.93
2023-03-11T19:01:36.595Z,59.01
2023-03-11T19:04:04.636Z,59.19
2023-03-11T19:06:34.099Z,59.94
2023-03-11T19:09:01.948Z,60.92
2023-03-11T19:11:29.879Z,62.37
2023-03-11T19:13:57.765Z,63.26
2023-03-11T19:16:27.145Z,63.04
2023-03-11T19:18:55.809Z,63.14
2023-03-11T19:21:24.244Z,63.12
2023-03-11T19:23:55.307Z,63.68
2023-03-11T19:26:33.875Z,63.48
2023-03-11T19:29:05.597Z,63.00
2023-03-11T19:31:33.609Z,62.36
2023-03-11T19:34:01.593Z,62.43
2023-03-11T19:36:30.180Z,62.70
2023-03-11T19:38:59.440Z,63.26
2023-03-11T19:41:27.177Z,63.77
2023-03-11T19:43:55.001Z,64.14
2023-03-11T19:46:24.084Z,64.05
2023-03-11T19:48:56.456Z,64.51
2023-03-11T19:51:26.660Z,64.78
2023-03-11T19:53:56.163Z,65.00
2023-03-11T19:56:27.665Z,65.24
2023-03-11T19:58:55.554Z,65.40
2023-03-11T20:01:25.311Z,65.05
2023-03-11T20:03:53.121Z,65.38
2023-03-11T20:06:22.708Z,65.62
2023-03-11T20:08:50.765Z,65.35
2023-03-11T20:11:18.716Z,65.47
2023-03-11T20:13:48.565Z,65.30
2023-03-11T20:16:19.040Z,66.02
2023-03-11T20:18:49.820Z,66.25
2023-03-11T20:21:17.795Z,66.96
2023-03-11T20:23:45.558Z,67.36
2023-03-11T20:26:15.733Z,67.34
2023-03-11T20:28:44.283Z,67.28
2023-03-11T20:31:16.469Z,67.04
2023-03-11T20:33:44.379Z,67.06
2023-03-11T20:36:14.140Z,66.71
2023-03-11T20:38:42.506Z,66.33
2023-03-11T20:41:10.896Z,66.61
2023-03-11T20:43:39.431Z,66.69
2023-03-11T20:46:09.620Z,67.01
2023-03-11T20:48:40.187Z,66.95
2023-03-11T20:51:10.389Z,67.33
2023-03-11T20:53:38.477Z,67.31
2023-03-11T20:56:08.689Z,67.23
2023-03-11T20:58:36.858Z,67.52
2023-03-11T21:01:12.020Z,67.55
2023-03-11T21:03:41.411Z,68.02
2023-03-11T21:06:17.871Z,68.48
2023-03-11T21:08:46.368Z,68.49
2023-03-11T21:11:14.587Z,68.49
2023-03-11T21:13:42.637Z,68.63
2023-03-11T21:16:11.277Z,68.62
2023-03-11T21:18:39.246Z,68.57
2023-03-11T21:21:11.664Z,68.87
2023-03-11T21:23:40.881Z,68.86
2023-03-11T21:26:09.398Z,68.88
2023-03-11T21:28:39.110Z,68.97
2023-03-11T21:31:10.920Z,69.48
2023-03-11T21:33:39.673Z,69.43
2023-03-11T21:36:10.512Z,69.88
2023-03-11T21:38:40.488Z,69.95
2023-03-11T21:41:11.083Z,70.13
2023-03-11T21:43:41.689Z,70.30
2023-03-11T21:46:11.523Z,70.52
2023-03-11T21:48:39.582Z,70.49
2023-03-11T21:51:09.073Z,70.32
2023-03-11T21:53:37.267Z,70.71
2023-03-11T21:56:05.830Z,71.04
2023-03-11T21:58:34.374Z,71.20
2023-03-11T22:01:02.316Z,71.54
2023-03-11T22:03:30.840Z,71.76
2023-03-11T22:05:59.239Z,71.81
2023-03-11T22:08:28.863Z,71.82
2023-03-11T22:10:56.775Z,72.13
2023-03-11T22:13:25.205Z,72.46
2023-03-11T22:15:53.388Z,72.40
2023-03-11T22:18:21.553Z,72.02
2023-03-11T22:20:49.302Z,72.09
2023-03-11T22:23:17.263Z,72.15
2023-03-11T22:25:46.394Z,72.11
2023-03-11T22:28:14.775Z,72.11
2023-03-11T22:30:42.562Z,71.94
2023-03-11T22:33:10.593Z,71.75
2023-03-11T22:35:38.354Z,71.63
2023-03-11T22:38:06.119Z,71.87
2023-03-11T22:40:35.354Z,71.90
2023-03-11T22:43:04.537Z,71.86
2023-03-11T22:45:32.316Z,72.29
2023-03-11T22:48:00.706Z,72.32
2023-03-11T22:50:28.496Z,72.00
2023-03-11T22:52:56.385Z,72.20
2023-03-11T22:55:24.127Z,72.16
2023-03-11T22:57:52.055Z,72.14
2023-03-11T23:00:23.303Z,71.62
2023-03-11T23:02:55.508Z,71.56
2023-03-11T23:05:24.060Z,71.78
2023-03-11T23:07:52.738Z,71.55
2023-03-11T23:10:21.714Z,71.46
2023-03-11T23:12:50.134Z,71.34
2023-03-11T23:15:19.616Z,71.46
2023-03-11T23:17:48.730Z,71.41
2023-03-11T23:20:17.317Z,71.32
2023-03-11T23:22:45.190Z,71.38
2023-03-11T23:25:15.346Z,71.62
2023-03-11T23:27:44.378Z,71.63
2023-03-11T23:30:14.928Z,71.32
2023-03-11T23:32:42.738Z,71.19
2023-03-11T23:35:13.432Z,71.06
2023-03-11T23:37:41.519Z,70.97
2023-03-11T23:40:11.188Z,70.80
2023-03-11T23:42:38.925Z,70.86
2023-03-11T23:45:08.029Z,70.97
2023-03-11T23:47:35.808Z,70.56
2023-03-11T23:50:03.622Z,70.72
2023-03-11T23:52:32.775Z,70.88
2023-03-11T23:55:00.532Z,70.78
2023-03-11T23:57:28.545Z,71.23
2023-03-11T23:59:56.290Z,71.06
